Time;durP1;ratioP1;P1;durP2;ratioP2;P2;SDS_P1;SDS_P2;PMS_P1;PMS_P2;Temp;Humidity;BMP_temperature;BMP_pressure;BME280_temperature;BME280_humidity;BME280_pressure;Samples;Min_cycle;Max_cycle;Signal;HPM_P1;HPM_P2
2021/09/30 00:00:40;;;;;;;;;;;7.10;87.50;;;;;;5016221;28;19905;-80
2021/09/30 00:03:06;;;;;;;;;;;7.10;87.50;;;;;;5016630;28;19963;-80
2021/09/30 00:05:31;;;;;;;;;;;7.10;88.20;;;;;;5017407;28;20342;-80
2021/09/30 00:07:57;;;;;;;;;;;7.10;87.30;;;;;;5019578;28;19916;-82
2021/09/30 00:10:24;;;;;;;;;;;7.10;87.40;;;;;;5016659;28;19906;-81
2021/09/30 00:12:55;;;;;;;;;;;7.10;87.40;;;;;;5008156;28;20356;-80
2021/09/30 00:15:45;;;;;;;;;;;7.10;87.40;;;;;;5025842;28;19911;-81
2021/09/30 00:34:46;;;;;;;;;;;7.10;86.90;;;;;;5014596;28;19916;-82
2021/09/30 00:47:54;;;;;;;;;;;7.20;86.30;;;;;;5014188;28;19910;-80
2021/09/30 03:00:55;;;;;;;;;;;7.00;86.80;;;;;;4957403;29;19914;-80
2021/09/30 03:03:23;;;;;;;;;;;6.90;86.60;;;;;;4957045;29;19920;-81
2021/09/30 03:05:53;;;;;;;;;;;6.90;86.80;;;;;;4956086;29;19910;-80
2021/09/30 03:08:20;;;;;;;;;;;6.90;86.90;;;;;;4955831;29;19911;-80
2021/09/30 03:10:50;;;;;;;;;;;6.90;87.00;;;;;;4956533;29;20415;-82
2021/09/30 03:13:16;;;;;;;;;;;6.90;86.90;;;;;;5015745;28;19920;-80
2021/09/30 03:15:46;;;;;;;;;;;7.00;86.90;;;;;;5018538;28;19905;-80
2021/09/30 03:18:28;;;;;;;;;;;7.00;86.90;;;;;;5016585;28;19924;-83
2021/09/30 03:22:03;;;;;;;;;;;7.00;86.80;;;;;;5016661;28;19913;-80
2021/09/30 03:23:42;;;;;;;;;;;7.00;87.00;;;;;;5016317;28;20393;-79
2021/09/30 03:26:08;;;;;;;;;;;6.90;87.10;;;;;;5016206;28;19905;-82
2021/09/30 03:28:35;;;;;;;;;;;6.90;87.40;;;;;;4998838;28;20293;-80
2021/09/30 03:31:01;;;;;;;;;;;6.90;87.60;;;;;;5016175;28;19959;-80
2021/09/30 03:33:27;;;;;;;;;;;6.90;87.80;;;;;;5015619;28;20240;-80
2021/09/30 03:35:52;;;;;;;;;;;6.90;87.80;;;;;;5017495;28;19912;-79
2021/09/30 03:38:19;;;;;;;;;;;6.90;87.80;;;;;;5019035;28;19917;-81
2021/09/30 03:40:45;;;;;;;;;;;7.00;87.80;;;;;;5017803;28;19945;-81
2021/09/30 03:43:11;;;;;;;;;;;7.00;87.80;;;;;;5016012;28;20019;-80
2021/09/30 03:45:36;;;;;;;;;;;7.00;87.90;;;;;;5015624;28;20290;-81
2021/09/30 03:48:04;;;;;;;;;;;7.00;88.00;;;;;;5016106;28;19912;-80
2021/09/30 04:01:31;;;;;;;;;;;7.00;88.70;;;;;;5016120;28;19967;-82
2021/09/30 04:03:57;;;;;;;;;;;7.00;88.90;;;;;;4997555;28;19913;-82
2021/09/30 04:06:22;;;;;;;;;;;6.90;88.90;;;;;;5015528;28;19935;-80
2021/09/30 04:08:48;;;;;;;;;;;6.90;89.10;;;;;;5015511;28;19905;-81
2021/09/30 04:11:14;;;;;;;;;;;6.90;89.60;;;;;;5015143;28;19909;-81
2021/09/30 04:13:40;;;;;;;;;;;6.90;89.80;;;;;;5016137;28;20285;-81
2021/09/30 04:16:06;;;;;;;;;;;6.90;89.90;;;;;;5016237;28;19910;-81
2021/09/30 04:18:31;;;;;;;;;;;6.90;89.90;;;;;;5016027;28;20343;-82
2021/09/30 04:20:58;;;;;;;;;;;6.90;89.90;;;;;;5014350;28;19910;-81
2021/09/30 04:23:24;;;;;;;;;;;6.90;89.90;;;;;;5014931;28;20024;-82
2021/09/30 04:25:50;;;;;;;;;;;6.90;89.80;;;;;;5014733;28;19913;-82
2021/09/30 04:28:15;;;;;;;;;;;6.90;89.70;;;;;;5014864;28;19912;-81
2021/09/30 04:30:42;;;;;;;;;;;6.90;89.70;;;;;;5014989;28;20358;-81
2021/09/30 04:33:07;;;;;;;;;;;6.90;89.80;;;;;;5014794;28;19952;-82
2021/09/30 04:35:33;;;;;;;;;;;6.90;89.90;;;;;;5014734;28;19905;-82
2021/09/30 04:37:59;;;;;;;;;;;6.90;90.00;;;;;;5014883;28;19918;-82
2021/09/30 04:40:24;;;;;;;;;;;6.90;89.90;;;;;;5013278;28;19906;-81
2021/09/30 04:42:50;;;;;;;;;;;6.90;90.00;;;;;;5014783;28;19960;-81
2021/09/30 04:45:16;;;;;;;;;;;6.90;90.00;;;;;;5015357;28;19912;-81
2021/09/30 04:47:41;;;;;;;;;;;6.90;90.00;;;;;;5015607;28;20011;-81
2021/09/30 04:50:08;;;;;;;;;;;6.90;89.70;;;;;;5015034;28;20346;-82
2021/09/30 04:52:33;;;;;;;;;;;6.90;89.70;;;;;;5002288;28;19948;-80
2021/09/30 04:54:59;;;;;;;;;;;6.90;89.70;;;;;;5020597;28;19906;-83
2021/09/30 04:57:25;;;;;;;;;;;6.90;89.70;;;;;;5015106;28;19960;-82
2021/09/30 04:59:50;;;;;;;;;;;7.00;89.70;;;;;;5014693;28;19935;-82
2021/09/30 05:02:16;;;;;;;;;;;7.10;89.70;;;;;;5015068;28;19936;-82
2021/09/30 05:04:45;;;;;;;;;;;7.10;89.40;;;;;;5014274;28;19906;-82
2021/09/30 05:07:10;;;;;;;;;;;7.10;89.20;;;;;;5015245;28;19905;-81
2021/09/30 05:09:36;;;;;;;;;;;7.10;89.10;;;;;;5020895;28;20004;-83
2021/09/30 05:12:03;;;;;;;;;;;7.10;88.80;;;;;;5016273;28;19906;-81
2021/09/30 05:14:29;;;;;;;;;;;7.10;88.80;;;;;;5015015;28;19905;-81
2021/09/30 05:16:54;;;;;;;;;;;7.10;89.00;;;;;;5013336;28;20007;-82
2021/09/30 05:19:20;;;;;;;;;;;7.20;89.10;;;;;;5014015;28;20395;-83
2021/09/30 05:21:46;;;;;;;;;;;7.20;88.60;;;;;;5012255;28;20313;-82
2021/09/30 05:24:12;;;;;;;;;;;7.10;88.70;;;;;;4996926;28;19909;-83
2021/09/30 05:26:37;;;;;;;;;;;7.20;88.70;;;;;;4995991;28;19916;-81
2021/09/30 05:29:03;;;;;;;;;;;7.20;88.70;;;;;;5013755;28;19967;-82
2021/09/30 05:31:31;;;;;;;;;;;7.20;88.60;;;;;;5013340;28;20040;-82
2021/09/30 05:33:56;;;;;;;;;;;7.30;88.60;;;;;;5028907;28;19909;-83
2021/09/30 05:36:22;;;;;;;;;;;7.30;88.60;;;;;;5011513;28;19906;-82
2021/09/30 05:38:48;;;;;;;;;;;7.30;88.40;;;;;;4996295;28;19992;-84
2021/09/30 05:41:14;;;;;;;;;;;7.30;88.50;;;;;;5013896;28;20407;-82
2021/09/30 05:43:45;;;;;;;;;;;7.30;88.30;;;;;;5014618;28;20008;-81
2021/09/30 05:46:14;;;;;;;;;;;7.20;88.50;;;;;;5015982;28;19952;-82
2021/09/30 05:48:40;;;;;;;;;;;7.10;88.30;;;;;;5029051;28;19914;-81
2021/09/30 05:51:05;;;;;;;;;;;7.00;88.70;;;;;;5014246;28;19910;-81
2021/09/30 05:53:31;;;;;;;;;;;6.90;89.00;;;;;;5013924;28;20295;-81
2021/09/30 05:55:57;;;;;;;;;;;6.90;89.30;;;;;;5013710;28;19920;-81
2021/09/30 05:58:22;;;;;;;;;;;7.00;89.40;;;;;;5014796;28;19909;-82
2021/09/30 06:14:25;;;;;;;;;;;7.10;89.20;;;;;;5013840;28;19918;-82
2021/09/30 06:16:51;;;;;;;;;;;7.10;89.00;;;;;;5014235;28;19913;-83
2021/09/30 06:19:21;;;;;;;;;;;7.10;88.90;;;;;;5029498;28;19955;-83
2021/09/30 06:21:47;;;;;;;;;;;7.10;88.60;;;;;;5013774;28;19916;-82
2021/09/30 06:24:13;;;;;;;;;;;7.10;88.50;;;;;;5015085;28;19912;-84
2021/09/30 06:26:39;;;;;;;;;;;7.20;88.60;;;;;;5017568;28;19968;-83
2021/09/30 06:29:05;;;;;;;;;;;7.20;88.40;;;;;;5013184;28;19909;-82
2021/09/30 06:31:30;;;;;;;;;;;7.30;88.40;;;;;;5013840;28;19945;-82
2021/09/30 06:33:56;;;;;;;;;;;7.30;87.60;;;;;;5013308;28;19909;-82
2021/09/30 06:36:22;;;;;;;;;;;7.40;87.50;;;;;;5013334;28;20270;-83
2021/09/30 06:38:47;;;;;;;;;;;7.50;87.10;;;;;;5012436;28;19969;-83
2021/09/30 06:41:13;;;;;;;;;;;7.60;86.80;;;;;;5014139;28;20290;-84
2021/09/30 06:43:39;;;;;;;;;;;7.70;86.70;;;;;;5013840;28;19920;-84
2021/09/30 06:46:04;;;;;;;;;;;7.80;86.20;;;;;;4996222;28;19917;-83
2021/09/30 06:48:30;;;;;;;;;;;7.80;85.80;;;;;;5016326;28;19912;-83
2021/09/30 06:50:56;;;;;;;;;;;7.70;84.90;;;;;;5018013;28;19906;-83
2021/09/30 06:53:22;;;;;;;;;;;7.70;84.30;;;;;;5000613;28;19912;-84
2021/09/30 06:55:48;;;;;;;;;;;7.70;84.70;;;;;;5001130;28;19913;-84
2021/09/30 06:58:14;;;;;;;;;;;7.70;84.50;;;;;;5018590;28;19905;-81
2021/09/30 07:00:41;;;;;;;;;;;7.70;84.50;;;;;;5023061;28;19906;-84
2021/09/30 07:03:09;;;;;;;;;;;7.70;84.50;;;;;;5025387;28;19917;-82
2021/09/30 07:05:35;;;;;;;;;;;7.70;84.30;;;;;;5021938;28;19905;-84
2021/09/30 07:08:01;;;;;;;;;;;7.60;84.30;;;;;;5018436;28;19912;-85
2021/09/30 07:10:27;;;;;;;;;;;7.60;84.60;;;;;;5019478;28;19909;-84
2021/09/30 07:12:53;;;;;;;;;;;7.50;84.70;;;;;;5020456;28;19929;-83
2021/09/30 07:15:18;;;;;;;;;;;7.60;84.90;;;;;;5019665;28;19905;-82
2021/09/30 07:17:44;;;;;;;;;;;7.70;85.50;;;;;;5020581;28;19905;-85
2021/09/30 07:20:13;;;;;;;;;;;7.60;84.10;;;;;;5017353;28;20255;-84
2021/09/30 07:22:39;;;;;;;;;;;7.60;84.40;;;;;;5016968;28;19981;-84
2021/09/30 07:25:04;;;;;;;;;;;7.60;84.50;;;;;;5017168;28;19936;-82
2021/09/30 07:27:30;;;;;;;;;;;7.60;84.40;;;;;;5016815;28;19910;-84
2021/09/30 07:29:56;;;;;;;;;;;7.70;84.60;;;;;;5017310;28;19913;-84
2021/09/30 07:32:24;;;;;;;;;;;7.80;84.20;;;;;;5018355;28;20006;-85
2021/09/30 07:34:50;;;;;;;;;;;7.80;84.20;;;;;;5020854;28;20384;-83
2021/09/30 07:37:16;;;;;;;;;;;7.90;83.80;;;;;;5021436;28;19917;-83
2021/09/30 07:39:41;;;;;;;;;;;7.90;83.60;;;;;;5019331;28;19905;-82
2021/09/30 07:42:07;;;;;;;;;;;7.90;83.40;;;;;;5017043;28;20004;-83
2021/09/30 07:44:33;;;;;;;;;;;7.90;83.10;;;;;;5018209;28;20398;-84
2021/09/30 07:46:59;;;;;;;;;;;7.90;82.70;;;;;;5025285;28;19905;-82
2021/09/30 07:49:25;;;;;;;;;;;7.80;83.00;;;;;;5017406;28;19906;-84
2021/09/30 07:51:50;;;;;;;;;;;7.80;83.20;;;;;;5016409;28;19912;-82
2021/09/30 07:54:16;;;;;;;;;;;7.90;83.20;;;;;;5016397;28;20003;-84
2021/09/30 07:56:42;;;;;;;;;;;7.90;83.20;;;;;;4998813;28;19928;-84
2021/09/30 07:59:09;;;;;;;;;;;8.00;83.30;;;;;;5016417;28;20285;-83
2021/09/30 08:01:35;;;;;;;;;;;8.00;83.10;;;;;;5022831;28;19912;-82
2021/09/30 08:04:02;;;;;;;;;;;7.90;82.70;;;;;;5018119;28;19913;-84
2021/09/30 08:06:28;;;;;;;;;;;7.90;83.00;;;;;;5017614;28;20291;-88
2021/09/30 08:08:54;;;;;;;;;;;7.90;83.20;;;;;;5016636;28;19948;-83
2021/09/30 08:11:20;;;;;;;;;;;7.80;83.20;;;;;;5016240;28;19911;-82
2021/09/30 08:13:46;;;;;;;;;;;7.80;83.20;;;;;;4997505;28;19909;-80
2021/09/30 08:16:14;;;;;;;;;;;7.80;83.30;;;;;;4999260;28;20347;-82
2021/09/30 08:18:39;;;;;;;;;;;7.70;83.60;;;;;;5016410;28;19910;-82
2021/09/30 08:21:05;;;;;;;;;;;7.80;83.80;;;;;;5016481;28;19916;-85
2021/09/30 08:23:31;;;;;;;;;;;7.90;83.60;;;;;;4998852;28;19914;-85
2021/09/30 08:25:56;;;;;;;;;;;7.90;83.50;;;;;;5014257;28;19939;-84
2021/09/30 08:28:22;;;;;;;;;;;8.00;83.50;;;;;;5015939;28;19905;-84
2021/09/30 08:30:50;;;;;;;;;;;8.00;83.40;;;;;;5016702;28;19935;-84
2021/09/30 08:33:18;;;;;;;;;;;8.10;83.10;;;;;;4998098;28;20365;-84
2021/09/30 08:35:43;;;;;;;;;;;8.10;82.90;;;;;;5016143;28;19951;-84
2021/09/30 08:38:09;;;;;;;;;;;8.20;82.90;;;;;;4998870;28;19917;-85
2021/09/30 08:40:35;;;;;;;;;;;8.20;83.00;;;;;;5015527;28;19906;-83
2021/09/30 08:43:01;;;;;;;;;;;8.20;83.00;;;;;;5016270;28;19913;-86
2021/09/30 08:45:27;;;;;;;;;;;8.20;83.30;;;;;;5015513;28;20277;-85
2021/09/30 08:48:00;;;;;;;;;;;8.30;83.30;;;;;;5015712;28;19905;-85
2021/09/30 08:50:26;;;;;;;;;;;8.30;83.10;;;;;;4998481;28;20061;-85
2021/09/30 08:52:52;;;;;;;;;;;8.40;83.00;;;;;;5015743;28;19905;-84
2021/09/30 08:55:17;;;;;;;;;;;8.50;82.90;;;;;;4997765;28;19951;-84
2021/09/30 08:57:47;;;;;;;;;;;8.50;82.50;;;;;;5015795;28;19905;-84
2021/09/30 09:00:13;;;;;;;;;;;8.50;82.40;;;;;;5017271;28;19936;-84
2021/09/30 09:02:43;;;;;;;;;;;8.60;82.30;;;;;;5006058;28;19917;-84
2021/09/30 09:05:09;;;;;;;;;;;8.60;82.10;;;;;;5022366;28;20293;-84
2021/09/30 09:07:34;;;;;;;;;;;8.60;81.80;;;;;;5016931;28;19905;-84
2021/09/30 09:10:04;;;;;;;;;;;8.60;81.90;;;;;;5015900;28;19905;-84
2021/09/30 09:12:31;;;;;;;;;;;8.60;82.10;;;;;;5015151;28;19911;-84
2021/09/30 09:15:01;;;;;;;;;;;8.50;82.00;;;;;;5014770;28;19990;-84
2021/09/30 09:17:26;;;;;;;;;;;8.50;81.90;;;;;;5015557;28;20269;-85
2021/09/30 09:19:53;;;;;;;;;;;8.50;82.30;;;;;;5015149;28;19912;-86
2021/09/30 09:22:19;;;;;;;;;;;8.60;82.20;;;;;;5012896;28;19942;-84
2021/09/30 09:24:55;;;;;;;;;;;8.50;81.60;;;;;;4997609;28;19917;-85
2021/09/30 09:27:21;;;;;;;;;;;8.50;81.80;;;;;;5017196;28;19948;-85
2021/09/30 09:29:47;;;;;;;;;;;8.50;82.20;;;;;;5016324;28;20278;-84
2021/09/30 09:32:13;;;;;;;;;;;8.60;82.50;;;;;;5014587;28;20374;-84
2021/09/30 09:34:39;;;;;;;;;;;8.50;82.40;;;;;;5015440;28;20324;-85
2021/09/30 09:37:20;;;;;;;;;;;8.50;82.20;;;;;;4997427;28;19917;-84
2021/09/30 09:39:46;;;;;;;;;;;8.50;82.30;;;;;;4998353;28;19905;-83
2021/09/30 09:42:16;;;;;;;;;;;8.60;82.30;;;;;;5014266;28;19914;-85
2021/09/30 09:44:55;;;;;;;;;;;8.60;82.20;;;;;;5014916;28;19905;-84
2021/09/30 09:47:26;;;;;;;;;;;8.50;82.10;;;;;;5014778;28;19910;-85
2021/09/30 09:50:10;;;;;;;;;;;8.40;82.20;;;;;;5015136;28;20278;-84
2021/09/30 09:52:52;;;;;;;;;;;8.30;82.40;;;;;;5000178;28;19913;-85
2021/09/30 09:55:26;;;;;;;;;;;8.30;82.80;;;;;;5018421;28;19905;-84
2021/09/30 09:57:59;;;;;;;;;;;8.30;82.90;;;;;;5028849;28;19912;-85
2021/09/30 10:00:25;;;;;;;;;;;8.30;82.90;;;;;;5024871;28;19905;-84
2021/09/30 10:02:52;;;;;;;;;;;8.40;83.10;;;;;;5020770;28;19914;-85
2021/09/30 10:05:18;;;;;;;;;;;8.30;82.70;;;;;;5002484;28;20378;-85
2021/09/30 10:07:45;;;;;;;;;;;8.10;83.00;;;;;;5015444;28;19905;-84
2021/09/30 10:10:10;;;;;;;;;;;8.10;83.70;;;;;;5014683;28;19972;-85
2021/09/30 10:12:37;;;;;;;;;;;8.00;83.90;;;;;;4998160;28;19960;-85
2021/09/30 10:15:03;;;;;;;;;;;8.10;83.90;;;;;;5017002;28;19909;-87
2021/09/30 10:17:28;;;;;;;;;;;8.10;84.10;;;;;;5016543;28;19910;-84
2021/09/30 10:19:57;;;;;;;;;;;8.00;84.30;;;;;;5016413;28;19906;-83
2021/09/30 10:22:23;;;;;;;;;;;8.10;84.30;;;;;;5016116;28;19913;-86
2021/09/30 10:24:50;;;;;;;;;;;8.10;84.20;;;;;;5022880;28;19912;-84
2021/09/30 10:27:16;;;;;;;;;;;8.10;84.20;;;;;;5024496;28;19906;-83
2021/09/30 10:29:46;;;;;;;;;;;8.10;84.30;;;;;;5020989;28;19912;-86
2021/09/30 10:32:13;;;;;;;;;;;8.10;84.30;;;;;;5019164;28;20333;-85
2021/09/30 10:34:45;;;;;;;;;;;8.10;84.10;;;;;;5018755;28;19912;-84
2021/09/30 10:37:20;;;;;;;;;;;8.00;84.40;;;;;;5020037;28;20436;-83
2021/09/30 10:40:05;;;;;;;;;;;8.00;84.70;;;;;;5020880;28;19916;-85
2021/09/30 10:42:41;;;;;;;;;;;8.00;85.00;;;;;;5019609;28;19967;-86
2021/09/30 10:45:12;;;;;;;;;;;8.10;85.20;;;;;;5018796;28;19912;-84
2021/09/30 10:47:38;;;;;;;;;;;8.20;85.20;;;;;;5019004;28;19905;-86
2021/09/30 10:50:04;;;;;;;;;;;8.20;85.30;;;;;;5005831;28;19911;-84
2021/09/30 10:52:31;;;;;;;;;;;8.20;85.40;;;;;;5021911;28;19943;-84
2021/09/30 10:55:00;;;;;;;;;;;8.30;85.40;;;;;;5017069;28;20362;-84
2021/09/30 10:57:36;;;;;;;;;;;8.30;85.40;;;;;;5017337;28;19905;-84
2021/09/30 11:00:08;;;;;;;;;;;8.30;85.30;;;;;;5020307;28;20302;-85
2021/09/30 11:02:52;;;;;;;;;;;8.30;85.40;;;;;;5024770;28;19916;-84
2021/09/30 11:05:18;;;;;;;;;;;8.30;85.50;;;;;;5021210;28;19912;-85
2021/09/30 11:07:43;;;;;;;;;;;8.30;85.60;;;;;;5017270;28;20008;-84
2021/09/30 11:10:16;;;;;;;;;;;8.30;85.70;;;;;;5015787;28;19912;-83
2021/09/30 11:13:05;;;;;;;;;;;8.30;85.50;;;;;;4999412;28;19906;-83
2021/09/30 11:16:09;;;;;;;;;;;8.20;85.40;;;;;;5013662;28;20242;-83
2021/09/30 11:18:41;;;;;;;;;;;8.10;85.40;;;;;;4976118;28;19912;-82
2021/09/30 11:21:25;;;;;;;;;;;8.00;85.70;;;;;;4967947;28;19910;-84
2021/09/30 11:23:51;;;;;;;;;;;8.00;85.90;;;;;;4977083;28;19950;-84
2021/09/30 11:26:18;;;;;;;;;;;8.00;85.90;;;;;;4978205;28;19961;-85
2021/09/30 11:28:43;;;;;;;;;;;8.00;85.90;;;;;;4976270;28;20001;-84
2021/09/30 11:31:28;;;;;;;;;;;8.10;86.00;;;;;;4975542;28;19957;-83
2021/09/30 11:33:55;;;;;;;;;;;8.10;86.00;;;;;;4975256;28;19906;-85
2021/09/30 11:36:27;;;;;;;;;;;8.30;86.00;;;;;;4975614;28;20402;-83
2021/09/30 11:38:56;;;;;;;;;;;8.40;85.80;;;;;;4975038;28;19918;-84
2021/09/30 11:41:26;;;;;;;;;;;8.40;85.30;;;;;;4974973;28;19910;-84
2021/09/30 11:43:51;;;;;;;;;;;8.50;85.30;;;;;;4975456;28;20434;-84
2021/09/30 11:46:28;;;;;;;;;;;8.40;85.10;;;;;;4975125;28;19906;-83
2021/09/30 11:48:58;;;;;;;;;;;8.40;85.00;;;;;;4988779;28;20382;-84
2021/09/30 11:51:34;;;;;;;;;;;8.50;85.10;;;;;;5017189;28;20000;-84
2021/09/30 11:54:00;;;;;;;;;;;8.60;84.90;;;;;;5017036;28;19913;-86
2021/09/30 11:56:26;;;;;;;;;;;8.60;84.20;;;;;;5018556;28;19932;-85
2021/09/30 11:59:05;;;;;;;;;;;8.60;84.00;;;;;;4999319;28;20385;-84
2021/09/30 12:01:35;;;;;;;;;;;8.50;83.70;;;;;;5018821;28;19959;-81
2021/09/30 12:04:00;;;;;;;;;;;8.50;83.90;;;;;;5019448;28;19926;-83
2021/09/30 12:06:38;;;;;;;;;;;8.40;83.70;;;;;;5018490;28;19910;-84
2021/09/30 12:09:04;;;;;;;;;;;8.40;83.70;;;;;;5000003;28;19928;-84
2021/09/30 12:11:32;;;;;;;;;;;8.40;83.80;;;;;;5017086;28;20017;-84
2021/09/30 12:13:58;;;;;;;;;;;8.40;83.80;;;;;;5015655;28;19912;-84
2021/09/30 12:16:23;;;;;;;;;;;8.50;84.00;;;;;;5020242;28;19911;-83
2021/09/30 12:19:03;;;;;;;;;;;8.50;83.90;;;;;;5015848;28;19968;-84
2021/09/30 12:21:35;;;;;;;;;;;8.60;83.80;;;;;;5015879;28;20424;-83
2021/09/30 12:24:03;;;;;;;;;;;8.70;84.10;;;;;;5015474;28;19920;-84
2021/09/30 12:26:30;;;;;;;;;;;8.70;83.20;;;;;;5015848;28;19961;-84
2021/09/30 12:28:58;;;;;;;;;;;8.60;82.80;;;;;;5015726;28;19936;-83
2021/09/30 12:31:24;;;;;;;;;;;8.60;82.80;;;;;;5015748;28;20010;-84
2021/09/30 12:33:51;;;;;;;;;;;8.50;82.90;;;;;;5016030;28;20362;-85
2021/09/30 12:36:17;;;;;;;;;;;8.40;82.90;;;;;;5015639;28;19988;-86
2021/09/30 12:38:56;;;;;;;;;;;8.30;83.10;;;;;;5016160;28;19917;-84
2021/09/30 12:41:22;;;;;;;;;;;8.30;83.40;;;;;;5015950;28;19916;-83
2021/09/30 12:43:48;;;;;;;;;;;8.40;83.50;;;;;;5015779;28;19914;-85
2021/09/30 12:46:17;;;;;;;;;;;8.50;84.20;;;;;;5013863;28;19906;-84
2021/09/30 12:48:43;;;;;;;;;;;8.50;83.40;;;;;;5015353;28;19906;-83
2021/09/30 12:51:10;;;;;;;;;;;8.60;83.50;;;;;;5016045;28;19995;-85
2021/09/30 12:53:42;;;;;;;;;;;8.60;83.50;;;;;;5016579;28;19915;-85
2021/09/30 12:56:10;;;;;;;;;;;8.70;83.50;;;;;;5017783;28;19905;-85
2021/09/30 12:58:40;;;;;;;;;;;8.70;83.50;;;;;;5025547;28;19913;-85
2021/09/30 13:01:27;;;;;;;;;;;8.70;83.40;;;;;;5017991;28;19905;-86
2021/09/30 13:04:05;;;;;;;;;;;8.70;83.40;;;;;;5014982;28;19924;-84
2021/09/30 13:06:31;;;;;;;;;;;8.70;83.60;;;;;;5015702;28;19909;-84
2021/09/30 13:08:56;;;;;;;;;;;8.70;83.70;;;;;;5019907;28;19937;-83
2021/09/30 13:11:27;;;;;;;;;;;8.70;83.50;;;;;;5000801;28;19915;-83
2021/09/30 13:14:11;;;;;;;;;;;8.80;83.50;;;;;;5014701;28;19913;-84
2021/09/30 13:16:37;;;;;;;;;;;8.80;83.20;;;;;;5015346;28;20400;-84
2021/09/30 13:19:03;;;;;;;;;;;8.70;83.10;;;;;;5002049;28;19910;-85
2021/09/30 13:21:28;;;;;;;;;;;8.70;83.10;;;;;;5000963;28;19970;-83
2021/09/30 13:23:54;;;;;;;;;;;8.70;83.00;;;;;;5018067;28;19917;-84
2021/09/30 13:26:20;;;;;;;;;;;8.70;83.00;;;;;;5015303;28;19945;-83
2021/09/30 13:28:45;;;;;;;;;;;8.80;83.10;;;;;;5013997;28;19967;-84
2021/09/30 13:31:11;;;;;;;;;;;8.70;82.80;;;;;;5015440;28;19960;-87
2021/09/30 13:33:37;;;;;;;;;;;8.70;82.80;;;;;;5017800;28;19941;-85
2021/09/30 13:36:03;;;;;;;;;;;8.70;82.90;;;;;;4999045;28;19905;-84
2021/09/30 13:38:28;;;;;;;;;;;8.80;82.90;;;;;;4991165;28;20398;-85
2021/09/30 13:40:54;;;;;;;;;;;8.80;82.70;;;;;;4978876;28;19906;-85
2021/09/30 13:43:19;;;;;;;;;;;8.80;82.90;;;;;;4976223;28;19973;-83
2021/09/30 13:45:45;;;;;;;;;;;8.80;82.90;;;;;;4974674;28;19909;-85
2021/09/30 13:48:11;;;;;;;;;;;8.80;83.00;;;;;;4977189;28;19993;-83
2021/09/30 13:50:37;;;;;;;;;;;8.90;83.10;;;;;;4986416;28;19906;-83
2021/09/30 13:53:02;;;;;;;;;;;8.80;82.60;;;;;;4983558;28;19907;-85
2021/09/30 13:55:28;;;;;;;;;;;8.80;82.70;;;;;;4974521;28;19913;-83
2021/09/30 13:57:54;;;;;;;;;;;8.80;82.60;;;;;;4975883;28;19913;-82
2021/09/30 14:00:20;;;;;;;;;;;8.70;82.20;;;;;;4979215;28;19959;-83
2021/09/30 14:02:47;;;;;;;;;;;8.50;82.20;;;;;;4979089;28;19914;-86
2021/09/30 14:05:13;;;;;;;;;;;8.40;82.40;;;;;;4977909;28;20282;-84
2021/09/30 14:07:41;;;;;;;;;;;8.30;82.60;;;;;;4979875;28;20282;-84
2021/09/30 14:10:15;;;;;;;;;;;8.20;82.80;;;;;;4978571;28;20425;-84
2021/09/30 14:12:42;;;;;;;;;;;8.20;83.10;;;;;;4979535;28;19961;-84
2021/09/30 14:15:08;;;;;;;;;;;8.30;83.30;;;;;;4981008;28;19906;-84
2021/09/30 14:17:34;;;;;;;;;;;8.40;83.30;;;;;;4975998;28;19906;-84
2021/09/30 14:20:00;;;;;;;;;;;8.50;83.20;;;;;;4979222;28;19906;-83
2021/09/30 14:22:26;;;;;;;;;;;8.50;83.20;;;;;;4981356;28;19925;-86
2021/09/30 14:24:52;;;;;;;;;;;8.60;83.30;;;;;;4978999;28;19906;-86
2021/09/30 14:27:18;;;;;;;;;;;8.70;83.20;;;;;;4962321;28;20402;-84
2021/09/30 14:29:43;;;;;;;;;;;8.60;83.20;;;;;;4979345;28;19949;-84
2021/09/30 14:32:10;;;;;;;;;;;8.70;83.40;;;;;;4977555;28;19906;-84
2021/09/30 14:34:36;;;;;;;;;;;8.80;83.50;;;;;;4978896;28;20288;-86
2021/09/30 14:37:02;;;;;;;;;;;8.80;83.50;;;;;;4980292;28;19913;-86
2021/09/30 14:39:28;;;;;;;;;;;8.80;83.30;;;;;;5017859;28;19905;-83
2021/09/30 14:41:53;;;;;;;;;;;8.80;83.40;;;;;;5000357;28;19948;-85
2021/09/30 14:44:23;;;;;;;;;;;8.80;83.60;;;;;;5017939;28;20263;-87
2021/09/30 14:46:49;;;;;;;;;;;8.90;83.60;;;;;;5000406;28;19905;-85
2021/09/30 14:49:14;;;;;;;;;;;8.90;83.30;;;;;;5017173;28;19960;-83
2021/09/30 14:54:55;;;;;;;;;;;8.90;83.00;;;;;;4986996;28;19968;-84
2021/09/30 14:57:21;;;;;;;;;;;8.90;83.00;;;;;;5021586;28;19945;-84
2021/09/30 14:59:46;;;;;;;;;;;8.90;82.80;;;;;;5021381;28;19948;-85
2021/09/30 15:02:13;;;;;;;;;;;8.90;82.90;;;;;;5023389;28;20375;-86
2021/09/30 15:04:42;;;;;;;;;;;8.90;82.90;;;;;;5018773;28;20005;-85
2021/09/30 15:07:07;;;;;;;;;;;8.90;82.80;;;;;;5001285;28;19996;-83
2021/09/30 15:09:33;;;;;;;;;;;8.70;82.50;;;;;;5018050;28;19944;-83
2021/09/30 15:11:59;;;;;;;;;;;8.60;82.50;;;;;;5018175;28;19906;-84
2021/09/30 15:14:26;;;;;;;;;;;8.60;82.80;;;;;;5016352;28;19988;-84
2021/09/30 15:19:49;;;;;;;;;;;8.60;82.70;;;;;;5017573;28;19988;-84
2021/09/30 15:22:14;;;;;;;;;;;8.50;82.60;;;;;;5015178;28;20362;-84
2021/09/30 15:24:40;;;;;;;;;;;8.40;82.70;;;;;;5015221;28;19912;-84
2021/09/30 15:27:06;;;;;;;;;;;8.40;83.00;;;;;;5017827;28;19909;-84
2021/09/30 15:29:32;;;;;;;;;;;8.50;83.30;;;;;;5017154;28;20292;-84
2021/09/30 15:31:58;;;;;;;;;;;8.50;83.20;;;;;;5016313;28;20271;-83
2021/09/30 15:34:24;;;;;;;;;;;8.50;83.30;;;;;;5016100;28;19917;-84
2021/09/30 15:36:49;;;;;;;;;;;8.50;83.10;;;;;;5016529;28;19941;-83
2021/09/30 15:39:15;;;;;;;;;;;8.40;83.30;;;;;;5015567;28;19972;-85
2021/09/30 15:41:42;;;;;;;;;;;8.40;83.60;;;;;;5016128;28;20409;-83
2021/09/30 15:44:09;;;;;;;;;;;8.40;83.80;;;;;;5016425;28;20000;-83
2021/09/30 15:46:34;;;;;;;;;;;8.30;84.00;;;;;;5017846;28;19905;-85
2021/09/30 15:49:01;;;;;;;;;;;8.30;84.10;;;;;;5017625;28;20309;-84
2021/09/30 15:51:27;;;;;;;;;;;8.30;84.20;;;;;;5021627;28;19905;-85
2021/09/30 15:53:53;;;;;;;;;;;8.30;84.30;;;;;;5020502;28;19906;-84
2021/09/30 15:56:18;;;;;;;;;;;8.30;84.30;;;;;;5016432;28;20273;-84
2021/09/30 15:58:44;;;;;;;;;;;8.20;84.20;;;;;;5017257;28;19936;-84
2021/09/30 16:01:11;;;;;;;;;;;8.20;84.20;;;;;;5016409;28;20267;-82
2021/09/30 16:03:37;;;;;;;;;;;8.20;84.30;;;;;;5016496;28;20004;-84
2021/09/30 16:06:28;;;;;;;;;;;8.20;84.30;;;;;;5016708;28;19956;-85
2021/09/30 16:09:26;;;;;;;;;;;8.30;84.40;;;;;;5017007;28;19905;-85
2021/09/30 16:12:03;;;;;;;;;;;8.50;84.30;;;;;;5017335;28;19905;-84
2021/09/30 16:14:29;;;;;;;;;;;8.50;84.00;;;;;;5011712;28;20011;-85
2021/09/30 16:17:04;;;;;;;;;;;8.50;83.80;;;;;;5011668;28;20290;-84
2021/09/30 16:19:29;;;;;;;;;;;8.60;84.00;;;;;;5009802;28;19905;-83
2021/09/30 16:21:55;;;;;;;;;;;8.60;83.80;;;;;;5015020;28;19906;-84
2021/09/30 16:24:23;;;;;;;;;;;8.80;84.00;;;;;;5015471;28;20290;-83
2021/09/30 16:26:49;;;;;;;;;;;8.80;83.70;;;;;;5018256;28;19929;-83
2021/09/30 16:29:18;;;;;;;;;;;8.80;83.60;;;;;;5018012;28;19905;-83
2021/09/30 16:31:44;;;;;;;;;;;8.80;83.60;;;;;;5016002;28;19905;-84
2021/09/30 16:34:10;;;;;;;;;;;8.80;83.60;;;;;;5016861;28;19917;-84
2021/09/30 16:36:36;;;;;;;;;;;8.90;83.40;;;;;;4999337;28;19913;-84
2021/09/30 16:39:02;;;;;;;;;;;8.70;83.00;;;;;;4995024;28;20382;-85
2021/09/30 16:41:27;;;;;;;;;;;8.70;83.20;;;;;;4997357;28;20052;-83
2021/09/30 16:43:53;;;;;;;;;;;8.70;83.30;;;;;;5013756;28;19964;-85
2021/09/30 16:46:20;;;;;;;;;;;8.70;83.40;;;;;;4997467;28;19912;-86
2021/09/30 16:48:49;;;;;;;;;;;8.70;83.50;;;;;;4995110;28;19909;-84
2021/09/30 16:51:15;;;;;;;;;;;8.70;83.50;;;;;;4999161;28;19968;-85
2021/09/30 16:53:42;;;;;;;;;;;8.70;83.60;;;;;;5005832;28;20285;-84
2021/09/30 16:56:09;;;;;;;;;;;8.70;83.60;;;;;;5002067;28;20008;-85
2021/09/30 16:58:35;;;;;;;;;;;8.70;83.60;;;;;;4996430;28;20001;-86
2021/09/30 17:01:00;;;;;;;;;;;8.70;83.40;;;;;;4997054;28;19906;-85
2021/09/30 17:03:27;;;;;;;;;;;8.70;83.30;;;;;;4996341;28;19937;-84
2021/09/30 17:05:52;;;;;;;;;;;8.60;83.20;;;;;;4996083;28;19906;-84
2021/09/30 17:08:18;;;;;;;;;;;8.50;83.10;;;;;;4996016;28;19906;-84
2021/09/30 17:10:44;;;;;;;;;;;8.50;83.30;;;;;;4996348;28;19945;-85
2021/09/30 17:13:09;;;;;;;;;;;8.40;83.40;;;;;;4993929;28;19912;-83
2021/09/30 17:15:36;;;;;;;;;;;8.40;83.50;;;;;;4976568;28;19910;-84
2021/09/30 17:18:02;;;;;;;;;;;8.30;83.60;;;;;;4981320;28;19941;-84
2021/09/30 17:20:29;;;;;;;;;;;8.20;83.80;;;;;;4996451;28;20359;-84
2021/09/30 17:22:55;;;;;;;;;;;8.20;83.90;;;;;;4997485;28;19918;-86
2021/09/30 17:25:21;;;;;;;;;;;8.30;83.90;;;;;;4996628;28;20235;-86
2021/09/30 17:27:47;;;;;;;;;;;8.30;83.90;;;;;;4996157;28;20007;-85
2021/09/30 17:30:15;;;;;;;;;;;8.20;83.90;;;;;;4996320;28;20414;-84
2021/09/30 17:32:41;;;;;;;;;;;8.30;84.30;;;;;;4996522;28;19912;-84
2021/09/30 17:35:08;;;;;;;;;;;8.30;84.30;;;;;;4998810;28;19906;-85
2021/09/30 17:37:34;;;;;;;;;;;8.40;84.40;;;;;;4996706;28;19918;-84
2021/09/30 17:40:00;;;;;;;;;;;8.50;84.50;;;;;;4997217;28;20393;-85
2021/09/30 17:42:26;;;;;;;;;;;8.50;84.50;;;;;;4993982;28;20429;-84